• Join FlightAware (Why Join?)
  • Login
  • US Flag 
01:21AM EST


 

Airport Tracker/Info


-or-


 

Live Flight TrackerFlight Track Log ✈ RPA3161 ✈ 27-Jun-2013 ✈ KBTV - KDCA

Flight Track Log - Related Links

Times and Time Zones

All times are in EDT time to prevent confusion due to time zone crossing. See the RPA3161 flight status page for this flight to view local times or setup timezone preferences in your user account.

Time Position Orientation Groundspeed Altitude Reporting Facility
EDT Latitude Longitude Course Direction KTS MPH feet Rate Location/Type
12:27PM 44.4364 -73.1319 195° South 160 184 2,300  Level Boston Center
12:28PM 44.1690 -73.2616 195° South  Level FlightAware Approximate
12:28PM 44.3822 -73.1228 173° South 194 223 4,300  Level Boston Center
12:29PM 44.0692 -73.2990 195° South  Level FlightAware Approximate
12:29PM 44.3092 -73.1364 188° South 244 281 7,500  Level Boston Center
12:30PM 43.9688 -73.3327 194° South  Level FlightAware Approximate
12:30PM 44.2422 -73.1703 200° South 277 319 10,400  Level Boston Center
12:31PM 43.8749 -73.3657 195° South  Level FlightAware Approximate
12:31PM 44.1547 -73.2069 197° South 316 364 12,800  Level Boston Center
12:32PM 43.7814 -73.4008 195° South  Level FlightAware Approximate
12:32PM 44.0769 -73.2694 210° Southwest 328 377 16,000  Level Boston Center
12:33PM 44.0014 -73.3433 215° Southwest 334 384 18,800 2,640 Climbing Boston Center
12:34PM 43.9258 -73.4258 218° Southwest 352 405 21,300 2,340 Climbing Boston Center
12:35PM 43.8417 -73.5022 213° Southwest 360 414 23,500 2,280 Climbing Boston Center
12:36PM 43.7311 -73.5347 192° South 365 420 25,900 1,860 Climbing Boston Center
12:37PM 43.6411 -73.5561 190° South 371 427 27,300 1,560 Climbing Boston Center
12:38PM 43.5347 -73.5828 190° South 383 441 29,100 1,560 Climbing Boston Center
12:39PM 43.4300 -73.6150 193° South 383 441 30,500 1,080 Climbing Boston Center
12:40PM 43.3194 -73.6472 192° South 396 456 31,500 660 Climbing Boston Center
12:41PM 43.1836 -73.6817 190° South 408 470 32,000 240 Climbing Boston Center
12:42PM 43.0706 -73.7161 193° South 418 481 32,000  Level Boston Center
12:43PM 42.9619 -73.7453 191° South 418 481 32,000  Level Boston Center
12:44PM 42.8489 -73.7797 193° South 413 475 32,000  Level Boston Center
12:45PM 42.7342 -73.8025 188° South 413 475 32,000  Level Boston Center
12:46PM 42.5947 -73.7853 175° South 413 475 32,000  Level Boston Center
12:47PM 42.4803 -73.7661 173° South 413 475 32,000  Level Boston Center
12:48PM 42.3636 -73.7494 174° South 419 482 32,000  Level Boston Center
12:49PM 42.2450 -73.7303 173° South 429 494 32,000  Level Boston Center
12:50PM 42.1203 -73.6997 170° South 420 483 32,000  Level Boston Center
12:52PM 41.8914 -73.7025 181° South 427 491 32,000  Level New York Center
12:53PM 41.7744 -73.7167 185° South 422 486 32,000  Level New York Center
12:54PM 41.6597 -73.7339 186° South 427 491 32,000  Level New York Center
12:55PM 41.5344 -73.7475 185° South 427 491 32,000  Level New York Center
12:56PM 41.4172 -73.7644 186° South 427 491 32,000  Level New York Center
12:57PM 41.3022 -73.7814 186° South 427 491 32,000  Level New York Center
12:58PM 41.1853 -73.8011 187° South 427 491 32,000  Level New York Center
12:59PM 41.0953 -73.8933 218° Southwest 399 459 32,000  Level New York Center
01:00PM 41.0256 -74.0139 233° Southwest 410 472 32,000  Level New York Center
01:01PM 40.9533 -74.1367 232° Southwest 412 474 32,000 -540 Level New York Center
01:02PM 40.8789 -74.2564 231° Southwest 425 489 31,000 -1,860 Descending New York Center
01:03PM 40.8086 -74.3764 232° Southwest 426 490 28,300 -1,500 Descending New York Center
01:04PM 40.7386 -74.4875 230° Southwest 411 473 28,000 -180 Descending New York Center
01:05PM 40.6725 -74.6017 233° Southwest 405 466 28,000  Level New York Center
01:06PM 40.6019 -74.7153 231° Southwest 405 466 28,000 -180 Level New York Center
01:07PM 40.5317 -74.8203 229° Southwest 399 459 27,700 -660 Descending New York Center
01:08PM 40.4553 -74.9222 225° Southwest 394 453 26,700 -1,020 Descending New York Center
01:09PM 40.3850 -75.0244 228° Southwest 389 448 25,700 -1,500 Descending New York Center
01:10PM 40.3147 -75.1208 226° Southwest 383 441 23,700 -2,160 Descending New York Center
01:11PM 40.2794 -75.2247 246° West 336 387 21,500 -1,920 Descending New York Center
01:12PM 40.2419 -75.3364 246° West 346 398 20,000 -780 Descending New York Center
01:13PM 40.1572 -75.4258 219° Southwest 346 398 20,000  Level New York Center
01:14PM 40.0897 -75.4947 218° Southwest 346 398 20,000  Level New York Center
01:15PM 40.0189 -75.5983 228° Southwest 346 398 20,000  Level New York Center
01:16PM 39.9614 -75.6783 227° Southwest 346 398 20,000 -360 Level New York Center
01:17PM 39.8922 -75.7844 230° Southwest 351 404 19,300 -1,320 Descending New York Center
01:18PM 39.8303 -75.8719 227° Southwest 345 397 17,400 -1,200 Descending New York Center
01:19PM 39.7700 -75.9594 228° Southwest 352 405 17,000 -240 Descending New York Center
01:20PM 39.7100 -76.0467 228° Southwest 344 396 17,000  Level New York Center
01:21PM 39.6428 -76.1469 229° Southwest 338 389 17,000 -540 Level New York Center
01:22PM 39.5847 -76.2286 227° Southwest 333 383 16,000 -1,500 Descending New York Center
01:24PM 39.4833 -76.3667 226° Southwest 307 353 13,100 -1,560 Descending Potomac TRACON
01:25PM 39.4333 -76.4333 226° Southwest 304 350 12,000 -780 Descending Potomac TRACON
01:26PM 39.3500 -76.5000 212° Southwest 303 349 11,600 -600 Descending Potomac TRACON
01:27PM 39.2833 -76.5667 218° Southwest 292 336 10,800 -840 Descending Potomac TRACON
01:28PM 39.2167 -76.6167 210° Southwest 293 337 10,000 -420 Descending Potomac TRACON
01:29PM 39.1500 -76.7000 224° Southwest 275 316 10,000  Level Potomac TRACON
01:30PM 39.1333 -76.7833 256° West 281 323 10,000 -900 Level Potomac TRACON
01:31PM 39.1000 -76.8833 247° West 278 320 8,200 -1,860 Descending Potomac TRACON
01:32PM 39.0833 -76.9667 256° West 271 312 6,300 -1,980 Descending Potomac TRACON
01:33PM 39.0500 -77.0667 247° West 271 312 4,300 -1,620 Descending Potomac TRACON
01:34PM 39.0167 -77.1500 243° Southwest 250 288 3,000 -1,200 Descending Potomac TRACON